Time;durP1;ratioP1;P1;durP2;ratioP2;P2;SDS_P1;SDS_P2;PMS_P1;PMS_P2;Temp;Humidity;BMP_temperature;BMP_pressure;BME280_temperature;BME280_humidity;BME280_pressure;Samples;Min_cycle;Max_cycle;Signal;HPM_P1;HPM_P2
2021/07/12 04:15:38;;;;;;;6.03;3.92;;;;;;;12.24;100.00;98502.66;5864985;23;20102;-73
2021/07/12 04:18:05;;;;;;;5.30;3.35;;;;;;;12.24;100.00;98502.66;4993213;28;20077;-73
2021/07/12 04:20:31;;;;;;;5.00;3.58;;;;;;;12.28;100.00;98499.03;4993275;28;20034;-72
2021/07/12 04:22:56;;;;;;;6.82;3.90;;;;;;;12.26;100.00;98495.66;4993203;28;20032;-72
2021/07/12 04:25:21;;;;;;;5.03;3.65;;;;;;;12.26;100.00;98493.06;4993145;28;20029;-73
2021/07/12 04:27:48;;;;;;;6.68;3.90;;;;;;;12.22;100.00;98483.66;4992983;28;20061;-72
2021/07/12 04:30:14;;;;;;;9.73;3.65;;;;;;;12.23;100.00;98480.16;4993562;28;20034;-71
2021/07/12 04:32:39;;;;;;;5.05;3.10;;;;;;;12.23;100.00;98480.16;4992888;28;20030;-71
2021/07/12 04:35:05;;;;;;;5.28;3.63;;;;;;;12.28;100.00;98479.13;4992915;28;20069;-71
2021/07/12 04:37:30;;;;;;;4.28;3.88;;;;;;;12.37;100.00;98466.75;4992915;28;20030;-71
2021/07/12 04:39:56;;;;;;;4.82;3.95;;;;;;;12.43;100.00;98451.84;4993018;28;20469;-72
2021/07/12 04:42:21;;;;;;;5.63;3.90;;;;;;;12.48;100.00;98451.69;4992961;28;20073;-71
2021/07/12 04:44:47;;;;;;;8.45;3.95;;;;;;;12.52;100.00;98454.16;4992872;28;20022;-71
2021/07/12 04:47:12;;;;;;;8.10;3.75;;;;;;;12.54;100.00;98457.56;4992487;28;20034;-71
2021/07/12 04:49:37;;;;;;;6.30;3.28;;;;;;;12.69;100.00;98452.78;4992884;28;20033;-72
2021/07/12 04:52:04;;;;;;;4.65;3.97;;;;;;;12.74;99.50;98458.66;4991553;28;20026;-72
2021/07/12 04:54:29;;;;;;;4.28;3.50;;;;;;;12.74;99.59;98450.88;4992676;28;20053;-71
2021/07/12 04:56:54;;;;;;;8.00;3.20;;;;;;;12.80;99.69;98456.72;4992490;28;20487;-71
2021/07/12 04:59:27;;;;;;;5.18;3.30;;;;;;;12.93;98.85;98451.97;4992793;28;20411;-71
2021/07/12 05:01:53;;;;;;;10.40;3.50;;;;;;;13.02;98.51;98454.28;4992721;28;20489;-71
2021/07/12 05:04:19;;;;;;;7.88;3.25;;;;;;;13.10;98.09;98460.09;4991437;28;20651;-71
2021/07/12 05:06:44;;;;;;;5.38;2.92;;;;;;;13.20;98.01;98454.53;4992340;28;20037;-71
2021/07/12 05:09:10;;;;;;;7.18;3.42;;;;;;;13.29;97.87;98465.53;4992813;28;20486;-71
2021/07/12 05:11:35;;;;;;;5.80;3.72;;;;;;;13.39;97.05;98471.25;4992523;28;20368;-71
2021/07/12 05:14:01;;;;;;;5.47;3.08;;;;;;;13.50;96.60;98471.75;4992649;28;20108;-71
2021/07/12 05:16:26;;;;;;;7.00;3.40;;;;;;;13.54;96.36;98462.94;4992113;28;20026;-71
2021/07/12 05:18:52;;;;;;;5.93;3.22;;;;;;;13.70;96.01;98473.66;4992631;28;20030;-71
2021/07/12 05:21:17;;;;;;;6.95;3.70;;;;;;;13.75;95.46;98469.16;4992498;28;20053;-71
2021/07/12 05:23:43;;;;;;;5.18;3.25;;;;;;;13.87;95.49;98468.69;4992482;28;20443;-71
2021/07/12 05:26:09;;;;;;;4.93;3.33;;;;;;;14.04;94.06;98455.06;4992216;28;20069;-71
2021/07/12 05:28:36;;;;;;;4.35;3.25;;;;;;;14.04;93.71;98455.06;4992376;28;20030;-71
2021/07/12 05:31:01;;;;;;;2.75;2.50;;;;;;;14.11;93.75;98461.72;4992398;28;20030;-71
2021/07/12 05:33:27;;;;;;;4.60;3.50;;;;;;;14.24;93.44;98456.06;4992307;28;20077;-71
2021/07/12 05:35:52;;;;;;;6.75;3.22;;;;;;;14.49;92.83;98451.63;4994002;28;20026;-71
2021/07/12 05:38:18;;;;;;;6.53;2.80;;;;;;;14.69;92.03;98452.59;4996106;28;20077;-72
2021/07/12 05:40:43;;;;;;;8.25;3.08;;;;;;;14.82;90.98;98453.81;4996297;28;20395;-71
2021/07/12 05:43:08;;;;;;;3.83;3.25;;;;;;;14.69;90.70;98442.16;4996096;28;20019;-71
2021/07/12 05:45:34;;;;;;;5.60;3.25;;;;;;;14.69;91.31;98452.59;4996068;28;20050;-71
2021/07/12 05:48:00;;;;;;;5.03;3.20;;;;;;;14.76;90.96;98439.28;4995976;28;20534;-71
2021/07/12 05:50:25;;;;;;;5.47;3.42;;;;;;;15.03;90.05;98442.50;4996016;28;20034;-71
2021/07/12 05:52:50;;;;;;;4.25;2.70;;;;;;;15.15;89.86;98442.00;4996024;28;20030;-71
2021/07/12 05:55:16;;;;;;;4.10;3.15;;;;;;;15.19;89.92;98444.50;4995712;28;20023;-71
2021/07/12 05:57:41;;;;;;;8.23;3.08;;;;;;;15.29;89.26;98443.19;4995843;28;20041;-72
2021/07/12 06:00:09;;;;;;;8.52;2.95;;;;;;;15.46;89.53;98427.63;4995807;28;20026;-71
2021/07/12 06:02:34;;;;;;;3.10;2.80;;;;;;;15.66;88.31;98421.56;4995874;28;20019;-71
2021/07/12 06:05:00;;;;;;;7.82;2.85;;;;;;;15.78;87.32;98421.03;4995745;28;20077;-71
2021/07/12 06:07:26;;;;;;;4.05;3.08;;;;;;;15.73;86.97;98420.38;4995446;28;20030;-71
2021/07/12 06:09:51;;;;;;;3.88;3.10;;;;;;;15.99;87.05;98413.97;4995900;28;20030;-71
2021/07/12 06:12:16;;;;;;;2.78;2.58;;;;;;;16.19;86.56;98419.13;4995737;28;20105;-71
2021/07/12 06:14:42;;;;;;;5.68;2.88;;;;;;;16.38;85.69;98420.88;4995558;28;20410;-72
2021/07/12 06:17:07;;;;;;;4.68;2.97;;;;;;;16.52;85.10;98428.91;4995285;28;20035;-71
2021/07/12 06:19:33;;;;;;;9.73;3.03;;;;;;;16.93;84.02;98423.50;4990422;28;20482;-71
2021/07/12 06:21:58;;;;;;;3.65;2.70;;;;;;;17.14;82.76;98424.19;4975765;28;20030;-71
2021/07/12 06:24:23;;;;;;;3.15;2.50;;;;;;;17.10;83.05;98426.09;4975772;28;20019;-71
2021/07/12 06:26:49;;;;;;;7.85;2.55;;;;;;;17.33;82.26;98426.72;4974661;28;20053;-71
2021/07/12 06:29:14;;;;;;;3.40;2.28;;;;;;;17.70;81.17;98426.53;4975840;28;20023;-72
2021/07/12 06:31:39;;;;;;;9.68;2.35;;;;;;;17.83;80.00;98421.50;4975662;28;20081;-71
2021/07/12 06:34:05;;;;;;;8.40;2.55;;;;;;;17.96;80.27;98416.44;4975715;28;20026;-72
2021/07/12 06:36:30;;;;;;;5.88;2.03;;;;;;;18.40;78.42;98410.53;4974811;28;20385;-72
2021/07/12 06:38:56;;;;;;;3.45;2.55;;;;;;;18.76;77.66;98407.69;4975091;28;20022;-72
2021/07/12 06:41:21;;;;;;;4.32;2.00;;;;;;;19.13;76.29;98405.53;4975682;28;20034;-72
2021/07/12 06:43:46;;;;;;;2.30;2.10;;;;;;;19.52;75.78;98394.41;4975497;28;20061;-72
2021/07/12 06:46:12;;;;;;;2.78;1.88;;;;;;;19.83;72.30;98379.44;4974796;28;20046;-72
2021/07/12 06:48:37;;;;;;;3.30;1.67;;;;;;;20.35;70.50;98376.13;4973870;28;20034;-72
2021/07/12 06:51:03;;;;;;;4.25;1.40;;;;;;;20.92;68.42;98381.19;4978943;28;20022;-72
2021/07/12 06:53:28;;;;;;;1.60;1.50;;;;;;;21.58;67.26;98374.97;4994335;28;20530;-72
2021/07/12 06:55:53;;;;;;;5.78;1.50;;;;;;;21.69;64.70;98361.88;4994583;28;20018;-71
2021/07/12 06:58:19;;;;;;;2.38;1.50;;;;;;;21.50;63.08;98366.75;4994597;28;20031;-71
2021/07/12 07:00:44;;;;;;;3.60;1.40;;;;;;;22.88;60.35;98375.34;4993628;28;20026;-72
2021/07/12 07:03:09;;;;;;;1.65;1.50;;;;;;;24.38;56.28;98371.66;4994656;28;20030;-72
2021/07/12 07:05:35;;;;;;;2.90;1.13;;;;;;;24.03;56.32;98369.97;4993776;28;20106;-72
2021/07/12 07:08:02;;;;;;;3.00;1.40;;;;;;;25.40;54.07;98375.56;4994418;28;20379;-72
2021/07/12 07:10:27;;;;;;;2.17;1.02;;;;;;;24.67;53.57;98377.22;4993116;28;20387;-72
2021/07/12 07:12:53;;;;;;;1.15;0.88;;;;;;;24.89;51.38;98377.13;4993600;28;20034;-72
2021/07/12 07:15:18;;;;;;;2.10;0.90;;;;;;;25.59;50.14;98370.34;4994179;28;20061;-72
2021/07/12 07:17:44;;;;;;;4.82;1.25;;;;;;;25.09;52.33;98362.22;4994206;28;20045;-72
2021/07/12 07:20:11;;;;;;;2.58;1.40;;;;;;;25.70;50.51;98357.00;4994184;28;20037;-72
2021/07/12 07:22:37;;;;;;;3.22;1.38;;;;;;;24.36;51.86;98367.31;4993375;28;20018;-72
2021/07/12 07:25:03;;;;;;;2.17;1.33;;;;;;;23.51;55.33;98360.84;4974293;28;20435;-72
2021/07/12 07:27:30;;;;;;;5.07;1.10;;;;;;;23.21;55.76;98362.25;4974508;28;20031;-72
2021/07/12 07:29:55;;;;;;;3.28;1.42;;;;;;;23.45;55.10;98334.84;4974621;28;20026;-72
2021/07/12 07:32:20;;;;;;;1.80;1.20;;;;;;;24.53;52.95;98334.16;4974595;28;20172;-72
2021/07/12 07:34:46;;;;;;;2.10;1.00;;;;;;;24.67;53.92;98325.06;4973467;28;20026;-72
2021/07/12 07:37:11;;;;;;;3.25;1.40;;;;;;;25.65;50.11;98319.41;4974223;28;20046;-72
2021/07/12 07:39:38;;;;;;;1.63;0.90;;;;;;;26.53;48.15;98313.34;4974396;28;20447;-72
2021/07/12 07:42:04;;;;;;;3.58;1.33;;;;;;;26.21;49.13;98302.13;4974392;28;20023;-72
2021/07/12 07:44:30;;;;;;;2.80;0.88;;;;;;;25.51;50.48;98298.53;4980249;28;20118;-72
2021/07/12 07:46:55;;;;;;;2.35;1.10;;;;;;;27.09;48.10;98299.34;4992577;28;20159;-72
2021/07/12 07:49:20;;;;;;;0.80;0.80;;;;;;;27.33;46.11;98298.00;4993654;28;20026;-72
2021/07/12 07:51:46;;;;;;;1.23;1.05;;;;;;;26.55;46.38;98305.25;4993510;28;20041;-72
2021/07/12 07:54:12;;;;;;;4.03;1.02;;;;;;;26.09;47.71;98288.94;4993585;28;20026;-72
2021/07/12 07:56:38;;;;;;;1.48;1.05;;;;;;;25.33;49.54;98285.03;4993072;28;20018;-72
2021/07/12 07:59:04;;;;;;;2.85;1.00;;;;;;;25.54;49.48;98283.19;4992503;28;20030;-72
2021/07/12 08:01:31;;;;;;;2.35;1.25;;;;;;;26.88;45.82;98275.56;4993478;28;20041;-72
2021/07/12 08:03:56;;;;;;;1.23;0.95;;;;;;;27.20;44.01;98263.75;4993422;28;20463;-72
2021/07/12 08:06:22;;;;;;;1.02;0.93;;;;;;;25.44;47.86;98265.56;4993225;28;20030;-72
2021/07/12 08:08:47;;;;;;;1.50;1.30;;;;;;;26.00;46.73;98260.56;4992043;28;20459;-72
2021/07/12 08:11:13;;;;;;;2.90;0.95;;;;;;;26.00;48.70;98262.38;4993411;28;20110;-72
2021/07/12 08:13:38;;;;;;;2.15;0.88;;;;;;;26.60;46.03;98255.19;4993155;28;20038;-72
2021/07/12 08:16:04;;;;;;;1.88;1.30;;;;;;;26.47;45.89;98265.25;4991647;28;20033;-72
2021/07/12 08:18:29;;;;;;;1.42;1.17;;;;;;;27.01;45.25;98253.13;4992989;28;20554;-72
2021/07/12 08:20:55;;;;;;;6.05;1.02;;;;;;;25.63;47.18;98265.63;4992239;28;20062;-72
2021/07/12 08:23:23;;;;;;;3.38;1.25;;;;;;;25.62;48.41;98258.63;4993145;28;20031;-72
2021/07/12 08:25:49;;;;;;;1.67;1.00;;;;;;;27.43;44.64;98245.59;4992939;28;20065;-72
2021/07/12 08:28:14;;;;;;;1.58;1.05;;;;;;;26.54;45.77;98251.25;4992953;28;20030;-72
2021/07/12 08:30:39;;;;;;;1.15;0.88;;;;;;;27.31;45.40;98236.94;4992870;28;20022;-72
2021/07/12 08:33:05;;;;;;;1.48;1.00;;;;;;;26.33;46.79;98242.56;4992023;28;20498;-72
2021/07/12 08:35:31;;;;;;;1.20;0.95;;;;;;;27.24;45.07;98235.88;4992825;28;20109;-72
2021/07/12 08:37:56;;;;;;;3.42;0.85;;;;;;;27.75;43.49;98236.34;4992795;28;20399;-72
2021/07/12 08:40:23;;;;;;;1.08;1.00;;;;;;;27.43;44.31;98224.31;4992761;28;20060;-72
2021/07/12 08:42:50;;;;;;;1.00;0.90;;;;;;;27.67;42.69;98221.09;4992402;28;20117;-72
2021/07/12 08:45:16;;;;;;;1.15;0.70;;;;;;;28.30;42.76;98225.56;4992136;28;20387;-74
2021/07/12 08:47:42;;;;;;;1.88;0.98;;;;;;;28.87;40.06;98224.22;4992331;28;20022;-73
2021/07/12 08:50:08;;;;;;;1.98;0.77;;;;;;;29.74;39.97;98227.69;4992742;28;20030;-73
2021/07/12 08:52:33;;;;;;;0.90;0.80;;;;;;;28.50;39.69;98215.63;4991313;28;20487;-71
2021/07/12 08:54:59;;;;;;;1.45;0.90;;;;;;;28.71;41.12;98208.09;4991764;28;20045;-71
2021/07/12 08:57:24;;;;;;;0.77;0.77;;;;;;;29.66;39.08;98199.13;4992169;28;20027;-71
2021/07/12 08:59:54;;;;;;;2.78;1.23;;;;;;;29.58;38.93;98201.75;4992504;28;20438;-71
2021/07/12 09:02:20;;;;;;;0.90;0.70;;;;;;;27.22;42.95;98200.56;4992487;28;20428;-71
2021/07/12 09:04:50;;;;;;;1.05;0.80;;;;;;;29.24;40.03;98193.75;4992245;28;20116;-71
2021/07/12 09:07:22;;;;;;;2.58;0.80;;;;;;;30.32;37.91;98192.06;4991388;28;20030;-71
2021/07/12 09:10:11;;;;;;;0.90;0.75;;;;;;;31.47;35.14;98206.88;4991704;28;20029;-71
2021/07/12 09:12:42;;;;;;;5.22;1.10;;;;;;;31.69;34.66;98212.50;4992323;28;20031;-72
2021/07/12 09:15:08;;;;;;;1.27;0.80;;;;;;;31.44;34.42;98217.97;4992391;28;20022;-72
2021/07/12 09:17:35;;;;;;;0.82;0.80;;;;;;;30.87;35.68;98210.09;4991151;28;20038;-72
2021/07/12 09:20:04;;;;;;;0.95;0.90;;;;;;;29.53;37.43;98209.38;4991824;28;20117;-72
2021/07/12 09:22:41;;;;;;;0.82;0.80;;;;;;;29.99;37.70;98203.69;4992298;28;20475;-72
2021/07/12 09:25:11;;;;;;;1.02;0.88;;;;;;;31.10;34.45;98201.34;4992107;28;20046;-72
2021/07/12 09:27:39;;;;;;;0.95;0.77;;;;;;;31.59;33.91;98214.56;4992210;28;20039;-78
2021/07/12 09:30:07;;;;;;;0.80;0.70;;;;;;;31.89;33.27;98211.06;4990048;28;20157;-78
2021/07/12 09:32:34;;;;;;;1.67;0.90;;;;;;;32.52;32.39;98210.97;4992107;28;20033;-78
2021/07/12 09:35:12;;;;;;;1.38;0.80;;;;;;;32.35;32.56;98211.09;4992155;28;20096;-78
2021/07/12 09:37:39;;;;;;;1.13;1.00;;;;;;;32.16;34.01;98208.88;4991931;28;20023;-78
2021/07/12 09:40:12;;;;;;;4.60;1.00;;;;;;;31.55;34.09;98200.66;4991938;28;20544;-78
2021/07/12 09:42:40;;;;;;;0.90;0.80;;;;;;;31.77;34.08;98212.47;4991270;28;20026;-77
2021/07/12 09:45:09;;;;;;;3.13;0.70;;;;;;;32.64;31.94;98198.81;4991949;28;20491;-77
2021/07/12 09:47:37;;;;;;;0.68;0.68;;;;;;;31.51;33.43;98202.03;4991933;28;20088;-77
2021/07/12 09:50:10;;;;;;;0.53;0.53;;;;;;;31.10;34.77;98215.56;4992053;28;20109;-77
2021/07/12 09:52:42;;;;;;;1.00;0.90;;;;;;;29.67;35.95;98215.97;4991072;28;20269;-77
2021/07/12 09:55:15;;;;;;;0.93;0.88;;;;;;;29.18;37.03;98210.41;4989503;28;20033;-77
2021/07/12 09:57:40;;;;;;;6.85;1.00;;;;;;;28.57;36.71;98216.66;4991930;28;20034;-77
2021/07/12 10:00:10;;;;;;;0.90;0.90;;;;;;;30.86;34.44;98213.78;4992023;28;20022;-71
2021/07/12 10:02:37;;;;;;;0.98;0.90;;;;;;;30.96;33.66;98218.94;4990612;28;20035;-71
2021/07/12 10:05:15;;;;;;;1.05;1.00;;;;;;;30.03;34.58;98210.38;4990921;28;20026;-71
2021/07/12 10:07:41;;;;;;;0.77;0.77;;;;;;;30.23;35.27;98202.91;4991718;28;20050;-77
2021/07/12 10:10:13;;;;;;;2.63;1.05;;;;;;;31.61;34.64;98191.09;4991924;28;20033;-72
2021/07/12 10:12:43;;;;;;;2.05;0.80;;;;;;;31.24;33.42;98187.22;4991655;28;20022;-71
2021/07/12 10:15:10;;;;;;;1.35;0.95;;;;;;;31.12;33.81;98175.22;4989331;28;20018;-71
2021/07/12 10:17:36;;;;;;;4.40;0.93;;;;;;;30.89;35.10;98170.59;4991300;28;20030;-72
2021/07/12 10:20:03;;;;;;;1.23;0.90;;;;;;;30.25;36.07;98172.34;4991800;28;20391;-72
2021/07/12 10:22:33;;;;;;;0.80;0.80;;;;;;;29.01;38.81;98157.94;4994196;28;20030;-72
2021/07/12 10:25:09;;;;;;;1.40;1.17;;;;;;;29.44;37.66;98164.97;4994891;28;20463;-71
2021/07/12 10:27:55;;;;;;;0.98;0.98;;;;;;;29.70;36.77;98173.75;4994039;28;20041;-71
2021/07/12 10:30:31;;;;;;;1.17;0.85;;;;;;;31.57;34.33;98163.81;5033454;23;20064;-75
2021/07/12 10:33:00;;;;;;;1.67;1.10;;;;;;;30.88;34.75;98162.75;4975538;28;20106;-71
2021/07/12 10:35:46;;;;;;;2.47;0.93;;;;;;;29.87;35.70;98160.41;4973749;28;20039;-73
2021/07/12 10:38:14;;;;;;;1.88;0.80;;;;;;;29.80;37.13;98151.41;4974738;28;20038;-74
2021/07/12 10:40:54;;;;;;;1.50;1.00;;;;;;;30.63;36.60;98162.78;4974933;28;20070;-73
2021/07/12 10:43:41;;;;;;;1.25;0.98;;;;;;;28.54;38.97;98159.16;4975503;28;20031;-72
2021/07/12 10:46:07;;;;;;;0.95;0.95;;;;;;;29.89;36.54;98159.25;4975282;28;20510;-71
2021/07/12 10:48:38;;;;;;;1.40;1.10;;;;;;;28.70;37.70;98153.09;4975257;28;20031;-72
2021/07/12 10:51:17;;;;;;;14.73;5.35;;;;;;;29.19;37.75;98164.88;4974612;28;20027;-73
2021/07/12 10:53:54;;;;;;;1.20;1.13;;;;;;;27.74;39.69;98176.91;4975239;28;20018;-74
2021/07/12 10:56:21;;;;;;;2.30;1.10;;;;;;;27.22;39.54;98181.13;4975141;28;20125;-73
2021/07/12 10:58:48;;;;;;;4.30;1.33;;;;;;;28.04;39.97;98182.88;4975007;28;20479;-73
2021/07/12 11:01:18;;;;;;;2.42;0.80;;;;;;;28.50;38.61;98189.78;4972481;28;20046;-73
2021/07/12 11:03:50;;;;;;;1.73;0.90;;;;;;;27.90;39.85;98192.25;4983543;28;20105;-72
2021/07/12 11:06:18;;;;;;;2.10;0.85;;;;;;;28.89;38.10;98190.22;4994408;28;20047;-73
2021/07/12 11:08:48;;;;;;;1.23;1.13;;;;;;;29.96;36.72;98189.66;4977237;28;20101;-74
2021/07/12 11:11:20;;;;;;;1.17;1.10;;;;;;;29.70;35.40;98183.59;4974918;28;20027;-73
2021/07/12 11:13:59;;;;;;;1.20;1.10;;;;;;;30.89;33.60;98192.00;4974116;28;20487;-74
2021/07/12 11:16:35;;;;;;;1.17;1.08;;;;;;;29.64;34.02;98179.75;4988864;28;20077;-71
2021/07/12 11:19:17;;;;;;;1.00;0.90;;;;;;;29.58;35.31;98166.19;4976819;28;20491;-71
2021/07/12 11:21:43;;;;;;;1.95;0.90;;;;;;;30.80;34.36;98152.91;4994168;28;20388;-73
2021/07/12 11:24:11;;;;;;;1.95;0.98;;;;;;;31.38;33.14;98143.69;4989260;28;20026;-71
2021/07/12 11:26:42;;;;;;;6.53;1.15;;;;;;;30.32;34.93;98162.66;4989347;28;20117;-73
2021/07/12 11:29:27;;;;;;;0.93;0.90;;;;;;;30.07;35.21;98169.78;4994165;28;20030;-73
2021/07/12 11:31:56;;;;;;;12.02;1.20;;;;;;;29.50;34.25;98166.16;4993908;28;20117;-72
2021/07/12 11:34:22;;;;;;;2.75;1.10;;;;;;;29.13;35.28;98164.69;4993293;28;20037;-71
2021/07/12 11:36:51;;;;;;;1.95;1.20;;;;;;;29.14;36.00;98155.69;4992567;28;20018;-74
2021/07/12 11:39:20;;;;;;;3.70;1.10;;;;;;;29.35;35.95;98158.78;4992060;28;20080;-73
2021/07/12 11:41:45;;;;;;;1.10;1.00;;;;;;;29.95;34.38;98155.94;4977082;28;20018;-71
2021/07/12 11:44:13;;;;;;;0.80;0.80;;;;;;;31.02;34.22;98137.94;4974404;28;20484;-71
2021/07/12 11:46:39;;;;;;;3.63;1.02;;;;;;;30.32;35.00;98135.94;4973834;28;20073;-71
2021/07/12 11:49:06;;;;;;;2.05;0.93;;;;;;;30.02;35.26;98128.53;4973680;28;20030;-72
2021/07/12 11:51:32;;;;;;;0.98;0.90;;;;;;;31.94;33.56;98122.91;4976591;28;20112;-71
2021/07/12 11:53:58;;;;;;;3.15;0.88;;;;;;;30.98;33.89;98124.06;4985081;28;20034;-74
2021/07/12 11:56:23;;;;;;;0.98;0.93;;;;;;;30.49;33.92;98127.88;4984377;28;20538;-74
2021/07/12 11:58:56;;;;;;;2.55;0.80;;;;;;;30.46;35.95;98121.88;4982114;28;20109;-73
2021/07/12 12:01:21;;;;;;;3.28;1.00;;;;;;;29.76;35.67;98123.34;4984634;28;20030;-71
2021/07/12 12:03:47;;;;;;;1.90;1.10;;;;;;;28.88;36.62;98118.34;4984893;28;20377;-71
2021/07/12 12:06:22;;;;;;;1.23;1.02;;;;;;;28.64;37.49;98113.72;4984844;28;20040;-71
2021/07/12 12:08:59;;;;;;;2.47;0.90;;;;;;;29.11;37.34;98111.50;4983702;28;20030;-72
2021/07/12 12:11:29;;;;;;;3.20;0.77;;;;;;;28.75;36.86;98110.78;4983842;28;20105;-72
2021/07/12 12:13:55;;;;;;;2.78;1.17;;;;;;;27.86;38.07;98106.50;4984515;28;20057;-75
2021/07/12 12:16:29;;;;;;;0.90;0.90;;;;;;;27.99;39.12;98098.09;4984591;28;20023;-74
2021/07/12 12:18:55;;;;;;;1.35;1.15;;;;;;;27.37;39.21;98106.00;4984538;28;20114;-73
2021/07/12 12:21:23;;;;;;;1.42;1.10;;;;;;;27.40;39.89;98111.00;4984323;28;20034;-75
2021/07/12 12:23:48;;;;;;;1.35;0.90;;;;;;;28.01;39.69;98104.13;4983990;28;20034;-74
2021/07/12 12:26:22;;;;;;;2.53;1.02;;;;;;;28.19;39.17;98096.09;4984190;28;20084;-75
2021/07/12 12:28:52;;;;;;;0.90;0.90;;;;;;;28.26;37.97;98114.97;4983111;28;20053;-72
2021/07/12 12:31:29;;;;;;;4.25;1.48;;;;;;;28.42;38.90;98107.94;4982914;28;20430;-70
2021/07/12 12:33:54;;;;;;;1.23;1.13;;;;;;;29.23;38.02;98106.69;4983093;28;20033;-72
2021/07/12 12:36:22;;;;;;;1.67;1.57;;;;;;;28.71;38.78;98117.44;4984114;28;21291;-73
2021/07/12 12:38:50;;;;;;;3.33;1.20;;;;;;;28.15;39.54;98105.41;4983937;28;20280;-73
2021/07/12 12:41:19;;;;;;;2.00;1.20;;;;;;;28.18;39.07;98115.72;4984001;28;20041;-70
2021/07/12 12:43:58;;;;;;;3.55;1.20;;;;;;;28.39;39.42;98118.91;4982845;28;20034;-74
2021/07/12 12:46:24;;;;;;;1.23;1.00;;;;;;;28.55;39.86;98114.69;4982355;28;20398;-73
2021/07/12 12:48:49;;;;;;;1.17;1.10;;;;;;;28.23;39.04;98104.59;4984052;28;20104;-73
2021/07/12 12:51:18;;;;;;;1.52;0.85;;;;;;;28.13;39.69;98104.69;4983905;28;20251;-74
2021/07/12 12:53:44;;;;;;;1.20;1.10;;;;;;;28.67;38.32;98094.72;4983791;28;20037;-74
2021/07/12 12:56:10;;;;;;;1.00;1.00;;;;;;;28.47;39.48;98090.63;4981810;28;20026;-72
2021/07/12 12:58:35;;;;;;;1.15;1.00;;;;;;;27.74;40.22;98086.41;4983517;28;20513;-72
2021/07/12 13:01:09;;;;;;;1.27;1.05;;;;;;;27.78;41.71;98082.44;4982750;28;20077;-75
2021/07/12 13:03:34;;;;;;;1.77;1.67;;;;;;;27.35;42.57;98091.16;4984026;28;20092;-74
2021/07/12 13:06:02;;;;;;;1.08;1.08;;;;;;;27.95;42.11;98082.56;4982690;28;20407;-73
2021/07/12 13:08:29;;;;;;;1.42;1.30;;;;;;;27.76;41.30;98084.44;4981831;28;20499;-70
2021/07/12 13:11:03;;;;;;;1.13;1.10;;;;;;;28.14;40.27;98074.38;4983779;28;20085;-72
2021/07/12 13:13:30;;;;;;;1.30;1.17;;;;;;;28.17;42.13;98076.75;4984007;28;21399;-70
2021/07/12 13:16:14;;;;;;;4.82;1.50;;;;;;;27.93;40.11;98070.25;4983726;28;20491;-74
2021/07/12 13:18:39;;;;;;;2.95;1.30;;;;;;;28.11;40.28;98058.72;4983435;28;20026;-71
2021/07/12 13:21:05;;;;;;;1.50;1.30;;;;;;;28.63;40.16;98066.75;4982972;28;20653;-72
2021/07/12 13:23:30;;;;;;;1.02;0.93;;;;;;;28.52;38.68;98053.66;4981235;28;20159;-73
2021/07/12 13:26:11;;;;;;;4.18;1.77;;;;;;;28.75;39.28;98052.13;4983625;28;20041;-71
2021/07/12 13:28:37;;;;;;;1.23;1.10;;;;;;;28.37;38.37;98067.59;4984136;28;20128;-73
2021/07/12 13:31:03;;;;;;;1.73;1.20;;;;;;;28.53;40.24;98050.00;4982650;28;20587;-70
2021/07/12 13:33:29;;;;;;;1.48;1.20;;;;;;;28.65;39.03;98035.41;4982908;28;20030;-70
2021/07/12 13:35:56;;;;;;;1.30;1.20;;;;;;;29.27;37.14;98029.81;4982826;28;20034;-73
2021/07/12 13:38:22;;;;;;;3.75;0.90;;;;;;;29.16;38.48;98038.97;4983509;28;20033;-70
2021/07/12 13:40:48;;;;;;;1.15;0.98;;;;;;;28.95;38.51;98034.06;4983585;28;20030;-70
2021/07/12 13:43:14;;;;;;;1.35;1.00;;;;;;;28.33;40.72;98034.22;4982652;28;20081;-70
2021/07/12 13:45:40;;;;;;;1.25;1.13;;;;;;;28.52;39.97;98027.84;4983354;28;20030;-70
2021/07/12 13:48:07;;;;;;;1.55;1.10;;;;;;;28.33;40.00;98020.88;4983555;28;20037;-70
2021/07/12 13:50:34;;;;;;;1.23;1.02;;;;;;;28.03;41.31;98026.72;4983473;28;20030;-71
2021/07/12 13:53:03;;;;;;;1.75;1.02;;;;;;;27.94;40.00;98025.81;4982333;28;20022;-73
2021/07/12 13:55:30;;;;;;;3.55;1.00;;;;;;;27.45;40.06;98029.88;4980740;28;20032;-74
2021/07/12 13:57:57;;;;;;;1.80;1.10;;;;;;;28.20;40.18;98030.31;4986784;28;20557;-70
2021/07/12 14:00:25;;;;;;;1.00;1.00;;;;;;;28.62;39.58;98027.72;4985992;28;20462;-73
2021/07/12 14:02:51;;;;;;;2.28;1.15;;;;;;;28.31;39.71;98019.38;4986659;28;20033;-73
2021/07/12 14:05:18;;;;;;;3.58;1.20;;;;;;;28.39;40.38;98033.63;4984763;28;20030;-73
2021/07/12 14:07:45;;;;;;;1.65;1.08;;;;;;;27.68;40.78;98033.75;4986833;28;20054;-70
2021/07/12 14:10:13;;;;;;;2.00;1.27;;;;;;;27.69;41.82;98024.75;4986909;28;20646;-73
2021/07/12 14:12:40;;;;;;;3.27;1.47;;;;;;;28.21;42.58;98014.19;4986341;28;20034;-73
2021/07/12 14:15:08;;;;;;;1.30;1.13;;;;;;;28.67;40.62;98015.59;4986910;28;20034;-70
2021/07/12 14:17:33;;;;;;;1.20;1.10;;;;;;;28.28;40.71;98014.38;4985350;28;20486;-73
2021/07/12 14:19:59;;;;;;;3.45;1.40;;;;;;;28.80;41.41;98007.13;4986724;28;20076;-73
2021/07/12 14:22:24;;;;;;;1.55;1.20;;;;;;;28.65;40.00;98004.25;4986200;28;20061;-73
2021/07/12 14:24:50;;;;;;;2.08;1.30;;;;;;;28.81;41.07;98007.97;4986645;28;20030;-73
2021/07/12 14:27:16;;;;;;;1.83;1.30;;;;;;;28.65;40.63;98006.09;4986495;28;20399;-73
2021/07/12 14:29:44;;;;;;;3.33;1.10;;;;;;;27.92;41.75;98004.66;4985095;28;20030;-70
2021/07/12 14:32:09;;;;;;;1.48;1.30;;;;;;;27.95;40.90;98002.66;4986807;28;20034;-73
2021/07/12 14:34:35;;;;;;;2.05;1.25;;;;;;;28.35;41.55;98005.63;4985163;28;20095;-70
2021/07/12 14:37:00;;;;;;;1.50;1.20;;;;;;;28.17;41.13;97997.66;4986152;28;20034;-71
2021/07/12 14:39:26;;;;;;;2.08;1.35;;;;;;;28.52;41.74;97995.03;4986221;28;20057;-73
2021/07/12 14:41:51;;;;;;;1.45;1.30;;;;;;;28.07;41.39;97990.78;4985927;28;20533;-71
2021/07/12 14:44:16;;;;;;;2.20;1.00;;;;;;;28.24;42.44;97994.34;4986258;28;20034;-72
2021/07/12 14:46:44;;;;;;;1.85;1.42;;;;;;;28.37;40.92;97992.13;4984912;28;20034;-70
2021/07/12 14:49:12;;;;;;;1.60;1.48;;;;;;;28.56;40.41;97988.38;4985719;28;20056;-69
2021/07/12 14:51:37;;;;;;;3.30;1.42;;;;;;;28.96;40.70;97986.88;4985355;28;20117;-72
2021/07/12 14:54:03;;;;;;;4.35;1.10;;;;;;;28.47;40.97;97981.34;4985836;28;20468;-69
2021/07/12 14:56:28;;;;;;;4.20;1.15;;;;;;;28.17;41.47;97987.00;4985800;28;20080;-69
2021/07/12 14:58:53;;;;;;;4.43;2.03;;;;;;;28.31;41.38;97977.59;4984546;28;20100;-72
2021/07/12 15:01:19;;;;;;;15.93;6.05;;;;;;;28.35;41.70;97968.31;4986007;28;20026;-72
2021/07/12 15:03:44;;;;;;;27.65;10.63;;;;;;;27.98;42.34;97965.09;4985028;28;20026;-71
2021/07/12 15:06:09;;;;;;;24.60;9.40;;;;;;;28.16;42.39;97969.34;4985660;28;20403;-69
2021/07/12 15:08:35;;;;;;;9.77;3.95;;;;;;;28.05;41.96;97972.28;4984911;28;20113;-72
2021/07/12 15:11:03;;;;;;;3.08;1.90;;;;;;;27.91;41.72;97968.38;4984542;28;20076;-69
2021/07/12 15:13:29;;;;;;;4.97;1.70;;;;;;;27.81;42.29;97975.66;4985963;28;20415;-69
2021/07/12 15:15:55;;;;;;;1.98;1.40;;;;;;;27.64;42.25;97968.50;4983871;28;20030;-74
2021/07/12 15:18:20;;;;;;;2.08;1.40;;;;;;;27.85;42.59;97970.81;4985899;28;20037;-75
2021/07/12 15:20:46;;;;;;;1.30;0.95;;;;;;;27.97;40.44;97979.41;4985644;28;20034;-73
2021/07/12 15:23:11;;;;;;;2.65;1.30;;;;;;;27.97;41.59;97971.41;4985854;28;20046;-75
2021/07/12 15:25:36;;;;;;;1.50;1.40;;;;;;;27.96;41.31;97977.72;4985087;28;20105;-75
2021/07/12 15:28:02;;;;;;;1.45;1.20;;;;;;;28.29;40.49;97976.91;4985217;28;20087;-74
2021/07/12 15:30:28;;;;;;;2.38;1.23;;;;;;;27.88;41.52;97975.84;4985365;28;20034;-73
2021/07/12 15:32:53;;;;;;;1.42;1.10;;;;;;;28.14;40.98;97976.69;4983986;28;20034;-73
2021/07/12 15:35:18;;;;;;;1.33;1.10;;;;;;;28.02;41.70;97974.44;4985544;28;20030;-70
2021/07/12 15:37:44;;;;;;;2.15;1.48;;;;;;;27.86;41.47;97976.00;4984569;28;20030;-72
2021/07/12 15:40:11;;;;;;;1.15;1.05;;;;;;;27.53;42.63;97976.72;4984542;28;20653;-69
2021/07/12 15:42:36;;;;;;;1.40;1.20;;;;;;;27.60;43.42;97972.44;4985029;28;20038;-72
2021/07/12 15:45:03;;;;;;;1.50;1.00;;;;;;;27.67;43.44;97965.53;4985252;28;20037;-74
2021/07/12 15:47:29;;;;;;;1.40;1.20;;;;;;;27.74;43.54;97974.56;4985109;28;20451;-73